createdAt,value
2018-05-17T03:44:57.730Z,22.60
2018-05-17T03:47:51.527Z,21.60
2018-05-17T03:52:33.182Z,22.10
2018-05-17T03:53:33.936Z,20.30
2018-05-17T04:02:43.245Z,20.50
2018-05-17T04:05:02.613Z,20.90
2018-05-17T04:06:02.711Z,23.10
2018-05-17T04:07:05.742Z,22.70
2018-05-17T04:08:30.200Z,23.40
2018-05-17T04:09:09.957Z,20.40
2018-05-17T04:10:05.508Z,23.70
2018-05-17T04:27:36.522Z,23.40
2018-05-17T04:28:35.010Z,20.20
2018-05-17T04:29:35.751Z,18.40
2018-05-17T04:30:37.294Z,21.80
2018-05-17T04:31:35.722Z,16.70
2018-05-17T04:32:37.982Z,22.60
2018-05-17T04:33:36.129Z,22.70
2018-05-17T04:36:09.148Z,22.80
2018-05-17T04:37:10.639Z,27.00
2018-05-17T04:38:09.572Z,22.00
2018-05-17T04:39:10.236Z,24.60
2018-05-17T04:40:09.734Z,22.80
2018-05-17T04:41:11.162Z,20.30
2018-05-17T04:42:10.156Z,23.10
2018-05-17T04:43:11.647Z,22.30
2018-05-17T04:44:11.126Z,18.90
2018-05-17T04:45:10.687Z,21.80
2018-05-17T04:46:26.319Z,23.70
2018-05-17T04:47:13.526Z,20.20
2018-05-17T04:48:08.971Z,24.00
2018-05-17T04:49:14.571Z,22.00
2018-05-17T04:50:09.276Z,24.20
2018-05-17T04:51:09.028Z,16.60
2018-05-17T04:52:10.037Z,26.70
2018-05-17T04:53:16.431Z,20.30
2018-05-17T04:54:10.828Z,26.00
2018-05-17T04:55:11.019Z,20.10
2018-05-17T04:56:09.893Z,21.30
2018-05-17T04:57:10.064Z,21.60
2018-05-17T04:58:11.052Z,21.70
2018-05-17T04:59:10.475Z,26.80
2018-05-17T05:00:10.926Z,22.70
2018-05-17T05:01:10.841Z,22.10
2018-05-17T05:02:11.363Z,22.00
2018-05-17T05:03:11.794Z,21.80
2018-05-17T05:04:12.258Z,18.60
2018-05-17T05:05:11.655Z,22.80
2018-05-17T05:06:14.023Z,22.30
2018-05-17T05:07:12.655Z,24.50
2018-05-17T05:08:12.236Z,22.40
2018-05-17T05:09:12.236Z,23.50
2018-05-17T05:10:12.466Z,20.70
2018-05-17T05:11:14.062Z,22.50
2018-05-17T05:14:12.152Z,23.20
2018-05-17T05:15:08.896Z,19.00
2018-05-17T05:16:10.378Z,19.80
2018-05-17T05:17:11.386Z,23.80
2018-05-17T05:19:10.760Z,19.20
2018-05-17T05:20:10.260Z,18.20
2018-05-17T05:21:11.230Z,18.90
2018-05-17T05:22:08.239Z,19.20
2018-05-17T05:23:09.063Z,18.30
2018-05-17T05:24:08.655Z,21.10
2018-05-17T05:25:08.558Z,18.80
2018-05-17T05:26:09.167Z,18.50
2018-05-17T05:27:10.213Z,19.70
2018-05-17T05:28:09.221Z,18.00
2018-05-17T05:29:10.433Z,21.50
2018-05-17T05:30:09.833Z,23.20
2018-05-17T05:31:09.576Z,20.10
2018-05-17T05:32:09.787Z,21.90
2018-05-17T05:33:10.486Z,21.00
2018-05-17T05:34:09.991Z,20.00
2018-05-17T05:35:11.213Z,20.70
2018-05-17T05:36:12.987Z,21.60
2018-05-17T05:37:10.710Z,23.30
2018-05-17T05:38:11.254Z,19.80
2018-05-17T05:39:11.004Z,21.30
2018-05-17T05:40:11.139Z,15.00
2018-05-17T05:41:11.309Z,19.60
2018-05-17T05:42:11.539Z,22.50
2018-05-17T05:43:11.876Z,22.00
2018-05-17T05:44:11.789Z,18.80
2018-05-17T05:45:11.972Z,19.50
2018-05-17T05:46:12.111Z,15.80
2018-05-17T05:47:19.144Z,25.10
2018-05-17T05:48:12.533Z,21.00
2018-05-17T05:49:12.693Z,21.40
2018-05-17T05:50:12.947Z,21.00
2018-05-17T05:51:13.015Z,23.60
2018-05-17T05:52:13.189Z,18.40
2018-05-17T05:53:13.551Z,19.60
2018-05-17T05:54:13.572Z,22.50
2018-05-17T05:55:13.588Z,22.80
2018-05-17T05:56:13.846Z,18.60
2018-05-17T05:57:15.134Z,18.80
2018-05-17T05:58:15.209Z,18.60
2018-05-17T06:00:49.711Z,21.80
2018-05-17T06:08:19.569Z,17.60
2018-05-17T06:13:08.005Z,22.90
2018-05-17T06:20:50.155Z,20.90
2018-05-17T06:22:52.589Z,19.30
2018-05-17T06:23:51.683Z,19.70
2018-05-17T06:24:50.761Z,18.40
2018-05-17T06:25:49.335Z,22.00
2018-05-17T06:26:49.366Z,20.10
2018-05-17T06:27:49.488Z,19.40
2018-05-17T06:28:49.593Z,18.80
2018-05-17T06:29:49.845Z,15.90
2018-05-17T06:30:50.107Z,18.10
2018-05-17T06:31:50.175Z,19.90
2018-05-17T06:32:50.410Z,19.80
2018-05-17T06:33:50.520Z,21.10
2018-05-17T06:34:50.748Z,19.80
2018-05-17T06:35:50.956Z,19.90
2018-05-17T06:36:51.011Z,18.60
2018-05-17T06:37:51.223Z,22.00
2018-05-17T06:38:51.383Z,18.30
2018-05-17T06:39:51.531Z,18.10
2018-05-17T06:40:51.776Z,23.00
2018-05-17T06:41:51.976Z,21.40
2018-05-17T06:42:52.044Z,18.90
2018-05-17T06:43:52.233Z,17.50
2018-05-17T06:44:52.424Z,19.50
2018-05-17T06:45:52.530Z,22.50
2018-05-17T06:46:52.658Z,26.30
2018-05-17T06:47:52.901Z,21.20
2018-05-17T06:48:53.028Z,18.40
2018-05-17T06:49:53.168Z,19.00
2018-05-17T06:50:53.375Z,18.30
2018-05-17T06:51:53.978Z,18.60
2018-05-17T06:52:54.405Z,19.40
2018-05-17T06:53:54.428Z,23.70
2018-05-17T06:54:54.250Z,23.00
2018-05-17T06:55:56.401Z,20.50
2018-05-17T06:56:54.460Z,16.80
2018-05-17T06:57:54.752Z,20.00
2018-05-17T06:58:54.857Z,21.10
2018-05-17T06:59:54.990Z,20.70
2018-05-17T07:00:55.665Z,17.00
2018-05-17T07:01:55.353Z,17.60
2018-05-17T07:02:55.740Z,20.90
2018-05-17T07:03:55.705Z,16.40
2018-05-17T07:04:55.833Z,14.30
2018-05-17T07:05:56.046Z,19.60
2018-05-17T07:06:56.419Z,16.80
2018-05-17T07:07:56.871Z,18.10
2018-05-17T07:08:56.748Z,17.10
2018-05-17T07:09:57.273Z,16.90
2018-05-17T07:10:57.271Z,20.10
2018-05-17T07:11:57.804Z,16.40
2018-05-17T07:12:57.614Z,19.60
2018-05-17T07:13:57.713Z,18.40
2018-05-17T07:14:57.875Z,18.80
2018-05-17T07:15:58.405Z,17.80
2018-05-17T07:16:59.077Z,20.40
2018-05-17T07:17:58.841Z,21.90
2018-05-17T07:18:58.607Z,23.00
2018-05-17T07:19:58.800Z,17.60
2018-05-17T07:20:59.121Z,17.90
2018-05-17T07:21:58.960Z,18.20
2018-05-17T07:22:59.473Z,19.50
2018-05-17T07:23:59.315Z,16.80
2018-05-17T07:24:59.986Z,18.20
2018-05-17T07:26:00.536Z,17.00
2018-05-17T07:27:00.089Z,17.70
2018-05-17T07:28:00.387Z,18.00
2018-05-17T07:29:00.163Z,16.50
2018-05-17T07:30:02.417Z,19.20
2018-05-17T07:31:01.080Z,20.40
2018-05-17T07:32:00.872Z,18.40
2018-05-17T07:33:00.976Z,19.60
2018-05-17T07:34:01.369Z,21.30
2018-05-17T07:35:01.717Z,16.30
2018-05-17T07:36:02.095Z,17.40
2018-05-17T07:37:02.109Z,14.30
2018-05-17T07:38:02.088Z,19.60
2018-05-17T07:39:02.740Z,21.50
2018-05-17T07:40:02.313Z,17.10
2018-05-17T07:41:02.562Z,16.40
2018-05-17T07:42:02.769Z,18.30
2018-05-17T07:43:02.846Z,20.30
2018-05-17T07:44:02.922Z,20.00
2018-05-17T07:45:03.337Z,20.70
2018-05-17T07:46:03.317Z,17.10
2018-05-17T07:47:03.452Z,18.10
2018-05-17T07:48:03.665Z,19.60
2018-05-17T07:50:04.153Z,19.90
2018-05-17T07:51:04.415Z,17.60
2018-05-17T07:52:04.925Z,16.90
2018-05-17T07:53:04.680Z,17.20
2018-05-17T07:54:04.698Z,17.80
2018-05-17T07:55:04.776Z,19.50
2018-05-17T07:56:05.309Z,19.90
2018-05-17T07:57:05.319Z,18.40
2018-05-17T07:58:05.474Z,18.30
2018-05-17T07:59:05.539Z,16.80
2018-05-17T08:00:05.785Z,20.90
2018-05-17T08:01:06.273Z,16.50
2018-05-17T08:02:06.216Z,18.70
2018-05-17T08:03:06.591Z,15.00
2018-05-17T08:04:06.712Z,16.80
2018-05-17T08:05:07.353Z,19.30
2018-05-17T08:06:06.913Z,16.90
2018-05-17T08:07:07.268Z,16.80
2018-05-17T08:08:07.473Z,20.90
2018-05-17T08:09:07.666Z,18.30
2018-05-17T08:10:07.859Z,16.30
2018-05-17T08:11:08.212Z,15.20
2018-05-17T08:12:08.914Z,17.10
2018-05-17T08:13:08.540Z,18.30
2018-05-17T08:14:08.364Z,16.20
2018-05-17T08:15:08.840Z,16.00
2018-05-17T08:16:09.117Z,17.50
2018-05-17T08:17:09.600Z,17.40
2018-05-17T08:18:09.461Z,19.40
2018-05-17T08:19:09.540Z,22.10
2018-05-17T08:20:09.970Z,18.60
2018-05-17T08:21:09.941Z,16.40
2018-05-17T08:22:10.085Z,18.50
2018-05-17T08:23:10.423Z,21.20
2018-05-17T08:24:10.419Z,16.10
2018-05-17T08:25:10.686Z,15.20
2018-05-17T08:26:10.620Z,17.20
2018-05-17T08:27:10.999Z,17.80
2018-05-17T08:28:12.166Z,15.30
2018-05-17T08:29:11.124Z,18.00
2018-05-17T08:30:11.502Z,17.60
2018-05-17T08:31:11.730Z,16.60
2018-05-17T08:32:11.892Z,18.70
2018-05-17T08:33:12.057Z,17.90
2018-05-17T08:34:12.307Z,19.10
2018-05-17T08:35:12.734Z,19.80
2018-05-17T08:36:12.757Z,15.30
2018-05-17T08:37:12.788Z,18.40
2018-05-17T08:38:13.282Z,17.30
2018-05-17T08:39:13.148Z,18.30
2018-05-17T08:40:13.309Z,17.90
2018-05-17T08:41:13.677Z,17.60
2018-05-17T08:42:13.724Z,20.30
2018-05-17T08:43:13.736Z,20.90
2018-05-17T08:44:14.134Z,17.10
2018-05-17T08:45:14.192Z,20.30
2018-05-17T08:46:14.378Z,17.40
2018-05-17T08:47:14.768Z,19.80
2018-05-17T08:48:14.932Z,18.60
2018-05-17T08:49:15.163Z,18.20
2018-05-17T08:50:15.200Z,17.40
2018-05-17T08:51:15.346Z,18.10
2018-05-17T08:52:15.504Z,17.10
2018-05-17T08:53:15.696Z,18.10
2018-05-17T08:54:15.711Z,17.90
2018-05-17T08:55:15.937Z,18.10
2018-05-17T08:56:15.965Z,15.90
2018-05-17T08:57:16.129Z,18.80
2018-05-17T08:58:16.317Z,18.50
2018-05-17T08:59:16.597Z,17.90
2018-05-17T09:00:16.664Z,16.60
2018-05-17T09:01:16.839Z,17.50
2018-05-17T09:02:17.169Z,17.00
2018-05-17T09:03:17.412Z,15.00
2018-05-17T09:04:17.594Z,19.30
2018-05-17T09:05:17.859Z,16.00
2018-05-17T09:07:17.869Z,15.00
2018-05-17T09:08:18.042Z,20.80
2018-05-17T09:09:18.328Z,18.70
2018-05-17T09:10:18.408Z,17.00
2018-05-17T09:11:18.707Z,19.70
2018-05-17T09:12:18.843Z,15.00
2018-05-17T09:13:19.006Z,14.50
2018-05-17T09:14:19.186Z,16.90
2018-05-17T09:15:19.354Z,19.10
2018-05-17T09:16:19.509Z,21.40
2018-05-17T09:17:19.963Z,19.80
2018-05-17T09:18:19.966Z,16.70
2018-05-17T09:19:20.350Z,14.70
2018-05-17T09:20:20.344Z,15.60
2018-05-17T09:21:20.315Z,15.90
2018-05-17T09:22:20.465Z,17.20
2018-05-17T09:23:22.555Z,18.30
2018-05-17T09:24:20.764Z,17.30
2018-05-17T09:25:21.060Z,16.20
2018-05-17T09:26:21.143Z,19.50
2018-05-17T09:27:21.350Z,17.90
2018-05-17T09:28:21.667Z,16.50
2018-05-17T09:29:21.871Z,16.40
2018-05-17T09:30:22.977Z,17.70
2018-05-17T09:31:22.359Z,17.00
2018-05-17T09:32:22.733Z,19.70
2018-05-17T09:33:23.278Z,20.00
2018-05-17T09:34:23.804Z,17.90
2018-05-17T09:35:23.758Z,17.90
2018-05-17T09:36:23.466Z,16.40
2018-05-17T09:37:23.416Z,21.20
2018-05-17T09:38:23.345Z,16.40
2018-05-17T09:39:23.792Z,17.00
2018-05-17T09:40:24.032Z,15.20
2018-05-17T09:43:21.735Z,16.70
2018-05-17T10:05:24.819Z,19.00
2018-05-17T10:44:46.228Z,17.30
2018-05-17T10:45:47.411Z,17.80
2018-05-17T10:46:45.698Z,19.00
2018-05-17T10:47:45.234Z,15.60
2018-05-17T10:48:45.394Z,16.50
2018-05-17T10:49:45.422Z,15.50
2018-05-17T10:50:45.667Z,16.20
2018-05-17T10:51:45.795Z,16.50
2018-05-17T10:52:45.983Z,18.50
2018-05-17T10:53:46.145Z,19.10
2018-05-17T10:54:46.257Z,19.10
2018-05-17T10:55:46.469Z,16.20
2018-05-17T10:56:46.619Z,15.20
2018-05-17T10:57:46.790Z,20.70
2018-05-17T10:58:46.975Z,16.50
2018-05-17T10:59:47.105Z,17.20
2018-05-17T11:00:47.206Z,15.10
2018-05-17T11:01:47.478Z,18.60
2018-05-17T11:02:47.642Z,19.70
2018-05-17T11:03:47.831Z,15.70
2018-05-17T11:04:48.089Z,16.30
2018-05-17T11:05:48.236Z,13.00
2018-05-17T11:06:48.421Z,15.80
2018-05-17T11:07:48.573Z,17.00
2018-05-17T11:08:48.729Z,18.50
2018-05-17T11:09:48.970Z,16.60
2018-05-17T11:10:49.007Z,17.10
2018-05-17T11:11:49.155Z,14.00
2018-05-17T11:12:49.314Z,16.20
2018-05-17T11:13:49.511Z,15.90
2018-05-17T11:14:49.653Z,15.60
2018-05-17T11:15:49.793Z,15.20
2018-05-17T11:16:50.049Z,17.30
2018-05-17T11:17:50.136Z,14.80
2018-05-17T11:18:50.382Z,13.50
2018-05-17T11:19:50.502Z,17.20
2018-05-17T11:20:50.728Z,12.00
2018-05-17T11:21:50.892Z,13.00
2018-05-17T11:22:51.069Z,16.20
2018-05-17T11:23:51.275Z,13.40
2018-05-17T11:24:51.306Z,16.80
2018-05-17T11:25:51.533Z,13.60
2018-05-17T11:26:51.739Z,14.90
2018-05-17T11:27:51.916Z,14.00
2018-05-17T11:28:52.202Z,14.70
2018-05-17T11:29:52.351Z,16.10
2018-05-17T11:30:52.568Z,12.60
2018-05-17T11:31:52.636Z,15.00
2018-05-17T11:32:52.973Z,15.00
2018-05-17T11:33:53.144Z,15.60
2018-05-17T11:34:53.208Z,14.80
2018-05-17T11:35:53.364Z,16.90
2018-05-17T11:36:53.584Z,13.10
2018-05-17T11:37:53.708Z,13.60
2018-05-17T11:38:53.888Z,13.90
2018-05-17T11:39:53.976Z,17.20
2018-05-17T11:40:54.255Z,13.00
2018-05-17T11:41:54.422Z,15.40
2018-05-17T11:42:54.709Z,17.50
2018-05-17T11:43:54.802Z,16.90
2018-05-17T11:44:54.924Z,13.60
2018-05-17T11:45:55.123Z,15.80
2018-05-17T11:46:55.292Z,15.40
2018-05-17T11:47:55.399Z,13.30
2018-05-17T11:48:55.611Z,16.70
2018-05-17T11:49:55.936Z,16.00
2018-05-17T11:50:56.078Z,17.00
2018-05-17T11:51:56.261Z,15.70
2018-05-17T11:52:57.361Z,13.50
2018-05-17T11:53:56.738Z,13.80
2018-05-17T11:54:56.740Z,15.20
2018-05-17T11:55:56.935Z,14.10
2018-05-17T11:56:57.084Z,16.70
2018-05-17T11:57:57.278Z,13.60
2018-05-17T11:58:57.478Z,14.50
2018-05-17T11:59:57.677Z,13.60
2018-05-17T12:00:57.900Z,14.10
2018-05-17T12:01:58.044Z,15.50
2018-05-17T12:02:58.174Z,13.40
2018-05-17T12:03:58.403Z,14.30
2018-05-17T12:04:58.549Z,13.50
2018-05-17T12:05:58.695Z,15.20
2018-05-17T12:06:58.885Z,15.10
2018-05-17T12:07:58.990Z,11.30
2018-05-17T12:08:59.149Z,16.00
2018-05-17T12:09:59.415Z,14.60
2018-05-17T12:10:59.609Z,14.00
2018-05-17T12:11:59.760Z,12.70
2018-05-17T12:12:59.902Z,15.90
2018-05-17T12:14:00.109Z,13.70
2018-05-17T12:15:00.223Z,15.10
2018-05-17T12:16:00.491Z,14.80
2018-05-17T12:17:00.666Z,14.80
2018-05-17T12:18:00.786Z,13.80
2018-05-17T12:19:00.899Z,14.30
2018-05-17T12:20:01.054Z,14.80
2018-05-17T12:21:01.302Z,16.40
2018-05-17T12:22:01.466Z,13.30
2018-05-17T12:23:01.717Z,15.50
2018-05-17T12:24:01.898Z,13.20
2018-05-17T12:25:02.066Z,13.50
2018-05-17T12:26:02.172Z,16.80
2018-05-17T12:27:02.477Z,12.90
2018-05-17T12:28:02.525Z,13.70
2018-05-17T12:29:02.702Z,14.40
2018-05-17T12:30:02.887Z,11.40
2018-05-17T12:31:03.153Z,15.10
2018-05-17T12:32:03.256Z,11.40
2018-05-17T12:33:03.463Z,15.30
2018-05-17T12:34:03.851Z,12.20
2018-05-17T12:35:03.785Z,13.80
2018-05-17T12:36:03.984Z,15.40
2018-05-17T12:37:04.240Z,15.60
2018-05-17T12:38:04.383Z,14.30
2018-05-17T12:39:04.497Z,12.70
2018-05-17T12:40:04.828Z,14.20
2018-05-17T12:41:04.883Z,13.20
2018-05-17T12:42:05.052Z,15.90
2018-05-17T12:43:05.234Z,14.00
2018-05-17T12:44:05.469Z,13.80
2018-05-17T12:45:05.670Z,12.10
2018-05-17T12:46:05.782Z,14.00
2018-05-17T12:47:05.949Z,15.40
2018-05-17T12:48:06.130Z,15.30
2018-05-17T12:49:06.315Z,16.50
2018-05-17T12:50:06.547Z,13.10
2018-05-17T12:51:06.912Z,15.40
2018-05-17T12:52:06.927Z,15.00
2018-05-17T12:53:07.051Z,14.80
2018-05-17T12:54:07.216Z,17.00
2018-05-17T12:55:07.352Z,16.00
2018-05-17T12:56:07.517Z,16.50
2018-05-17T12:57:07.728Z,14.00
2018-05-17T12:58:07.847Z,16.60
2018-05-17T12:59:08.087Z,15.40
2018-05-17T13:00:08.266Z,16.10
2018-05-17T13:01:08.442Z,16.20
2018-05-17T13:02:08.603Z,14.10
2018-05-17T13:03:08.693Z,13.50
2018-05-17T13:04:08.964Z,15.30
2018-05-17T13:05:09.224Z,18.00
2018-05-17T13:06:09.998Z,15.20
2018-05-17T13:07:10.122Z,16.50
2018-05-17T13:13:27.318Z,12.60
2018-05-17T13:14:05.039Z,17.10
2018-05-17T13:19:08.540Z,13.30
2018-05-17T13:32:52.498Z,14.60
2018-05-17T13:33:15.420Z,15.20
2018-05-17T13:42:53.666Z,14.00
2018-05-17T14:02:23.071Z,13.30
2018-05-17T14:05:32.915Z,15.60
2018-05-17T14:07:27.738Z,17.40
2018-05-17T14:14:27.542Z,13.40
2018-05-17T14:22:17.415Z,12.70
2018-05-17T14:28:03.694Z,12.20
2018-05-17T14:33:32.372Z,15.30
2018-05-17T14:52:58.371Z,15.50
2018-05-17T15:09:54.731Z,16.10
2018-05-17T15:11:28.772Z,14.50
2018-05-17T15:13:46.530Z,13.60
2018-05-17T15:30:54.010Z,15.10
2018-05-17T15:32:45.162Z,14.80
2018-05-17T15:47:25.369Z,15.10
2018-05-17T15:49:01.610Z,16.80
2018-05-17T15:50:09.551Z,15.60
2018-05-17T15:51:54.505Z,15.60
2018-05-17T15:52:01.399Z,12.20
2018-05-17T16:03:27.602Z,15.50
2018-05-17T16:14:26.004Z,16.70
2018-05-17T16:25:55.694Z,17.20
2018-05-17T16:44:04.427Z,18.10
2018-05-17T16:46:16.619Z,15.80
2018-05-17T16:47:45.626Z,18.40
2018-05-17T16:59:57.825Z,17.00
2018-05-17T17:05:27.296Z,23.90
2018-05-17T18:00:50.964Z,20.90
2018-05-17T18:01:50.008Z,18.70
2018-05-17T18:03:51.032Z,18.80
2018-05-17T18:04:53.236Z,18.60
2018-05-17T18:05:51.023Z,20.90
2018-05-17T18:06:48.413Z,20.30
2018-05-17T20:14:54.682Z,20.20
2018-05-17T20:15:25.953Z,15.20
2018-05-17T21:23:43.667Z,18.90
2018-05-17T21:36:00.693Z,17.70
2018-05-17T21:37:06.481Z,18.30
